Time;durP1;ratioP1;P1;durP2;ratioP2;P2;SDS_P1;SDS_P2;PMS_P1;PMS_P2;Temp;Humidity;BMP_temperature;BMP_pressure;BME280_temperature;BME280_humidity;BME280_pressure;Samples;Min_cycle;Max_cycle;Signal;HPM_P1;HPM_P2
2024/01/19 00:02:01;;;;;;;;;;;0.20;83.00;;;;;;4168603;28;19967;-84
2024/01/19 00:04:21;;;;;;;;;;;0.20;83.00;;;;;;4181093;28;19921;-84
2024/01/19 00:06:42;;;;;;;;;;;0.20;83.00;;;;;;4182907;28;19916;-84
2024/01/19 00:09:02;;;;;;;;;;;0.20;83.10;;;;;;4169816;28;19923;-84
2024/01/19 00:11:23;;;;;;;;;;;0.20;83.20;;;;;;4166951;28;19947;-84
2024/01/19 00:13:44;;;;;;;;;;;0.20;83.50;;;;;;4167896;28;19995;-84
2024/01/19 00:16:04;;;;;;;;;;;0.20;83.90;;;;;;4170359;28;20035;-84
2024/01/19 00:18:26;;;;;;;;;;;0.30;83.80;;;;;;4167070;28;20000;-85
2024/01/19 00:20:46;;;;;;;;;;;0.30;83.60;;;;;;4170356;28;19979;-86
2024/01/19 00:23:07;;;;;;;;;;;0.30;83.90;;;;;;4170550;28;19921;-85
2024/01/19 00:25:27;;;;;;;;;;;0.30;84.40;;;;;;4169153;28;19917;-85
2024/01/19 00:27:48;;;;;;;;;;;0.40;84.60;;;;;;4168086;28;19921;-85
2024/01/19 00:30:09;;;;;;;;;;;0.40;84.40;;;;;;4166336;28;19932;-83
2024/01/19 00:32:29;;;;;;;;;;;0.40;83.90;;;;;;4167900;28;20417;-82
2024/01/19 00:34:49;;;;;;;;;;;0.40;84.30;;;;;;4172363;28;19913;-84
2024/01/19 00:37:10;;;;;;;;;;;0.40;84.20;;;;;;4171111;28;19928;-84
2024/01/19 00:39:32;;;;;;;;;;;0.40;84.50;;;;;;4170849;28;19920;-83
2024/01/19 00:41:52;;;;;;;;;;;0.40;84.30;;;;;;4172673;28;20132;-84
2024/01/19 00:44:13;;;;;;;;;;;0.50;84.20;;;;;;4170645;28;19920;-84
2024/01/19 00:46:33;;;;;;;;;;;0.50;84.10;;;;;;4168308;28;19917;-83
2024/01/19 00:48:54;;;;;;;;;;;0.50;83.80;;;;;;4172650;28;19917;-84
2024/01/19 00:51:15;;;;;;;;;;;0.50;84.50;;;;;;4165670;28;20494;-84
2024/01/19 00:53:36;;;;;;;;;;;0.50;83.70;;;;;;4165078;28;19920;-84
2024/01/19 00:55:56;;;;;;;;;;;0.50;83.60;;;;;;4168303;28;19917;-84
2024/01/19 00:58:17;;;;;;;;;;;0.40;83.30;;;;;;4166429;28;19921;-84
2024/01/19 01:00:37;;;;;;;;;;;0.50;83.50;;;;;;4167614;28;20011;-84
2024/01/19 01:02:58;;;;;;;;;;;0.40;83.40;;;;;;4182644;28;20183;-84
2024/01/19 01:05:02;;;;;;;;;;;0.40;83.40;;;;;;4176909;28;19927;-83
2024/01/19 01:07:02;;;;;;;;;;;0.50;83.40;;;;;;4161379;28;19920;-84
2024/01/19 01:09:03;;;;;;;;;;;0.40;83.30;;;;;;4168228;28;19921;-84
2024/01/19 01:11:05;;;;;;;;;;;0.50;83.30;;;;;;4169620;28;20376;-83
2024/01/19 01:13:05;;;;;;;;;;;0.40;83.00;;;;;;4149008;28;21659;-84
2024/01/19 01:15:06;;;;;;;;;;;0.40;83.10;;;;;;4166539;28;20012;-83
2024/01/19 01:17:07;;;;;;;;;;;0.40;83.10;;;;;;4183849;28;19920;-83
2024/01/19 01:19:08;;;;;;;;;;;0.40;83.00;;;;;;4170648;28;19977;-83
2024/01/19 01:21:09;;;;;;;;;;;0.40;82.90;;;;;;4168254;28;19924;-84
2024/01/19 01:23:10;;;;;;;;;;;0.40;82.90;;;;;;4175818;28;19921;-84
2024/01/19 01:25:11;;;;;;;;;;;0.40;82.70;;;;;;4153245;28;19932;-83
2024/01/19 01:27:12;;;;;;;;;;;0.30;82.60;;;;;;4157058;28;20382;-83
2024/01/19 01:29:12;;;;;;;;;;;0.30;82.60;;;;;;4168853;28;19921;-83
2024/01/19 01:31:13;;;;;;;;;;;0.30;82.50;;;;;;4172603;28;19917;-84
2024/01/19 01:33:15;;;;;;;;;;;0.30;82.50;;;;;;4187067;28;19920;-83
2024/01/19 01:35:36;;;;;;;;;;;0.30;82.50;;;;;;4168720;28;20015;-84
2024/01/19 01:37:36;;;;;;;;;;;0.20;82.30;;;;;;4175487;28;19933;-83
2024/01/19 01:39:57;;;;;;;;;;;0.30;82.50;;;;;;4170252;28;19913;-83
2024/01/19 01:42:17;;;;;;;;;;;0.20;82.40;;;;;;4189327;28;19909;-82
2024/01/19 01:44:38;;;;;;;;;;;0.20;82.40;;;;;;4196977;28;19939;-84
2024/01/19 01:46:58;;;;;;;;;;;0.20;82.50;;;;;;4172176;28;19924;-83
2024/01/19 01:48:59;;;;;;;;;;;0.10;82.40;;;;;;4166788;28;19913;-83
2024/01/19 01:51:00;;;;;;;;;;;0.20;82.50;;;;;;4172545;28;20478;-84
2024/01/19 01:53:00;;;;;;;;;;;0.30;82.60;;;;;;4152696;28;20066;-85
2024/01/19 01:55:01;;;;;;;;;;;0.20;82.60;;;;;;4168383;28;20483;-83
2024/01/19 01:57:02;;;;;;;;;;;0.20;82.60;;;;;;4168496;28;20386;-84
2024/01/19 01:59:03;;;;;;;;;;;0.20;82.70;;;;;;4166787;28;19963;-84
2024/01/19 02:01:04;;;;;;;;;;;0.20;82.80;;;;;;4182427;28;19916;-84
2024/01/19 02:03:24;;;;;;;;;;;0.20;82.80;;;;;;4169661;28;19921;-84
2024/01/19 02:05:45;;;;;;;;;;;0.20;82.80;;;;;;4177822;28;20340;-85
2024/01/19 02:08:05;;;;;;;;;;;0.20;82.80;;;;;;4168422;28;20013;-83
2024/01/19 02:10:06;;;;;;;;;;;0.20;82.80;;;;;;4169255;28;19921;-83
2024/01/19 02:12:27;;;;;;;;;;;0.20;82.70;;;;;;4165182;28;19959;-84
2024/01/19 02:14:47;;;;;;;;;;;0.20;82.70;;;;;;4168497;28;19916;-84
2024/01/19 02:17:08;;;;;;;;;;;0.20;82.70;;;;;;4171428;28;20633;-84
2024/01/19 02:19:28;;;;;;;;;;;0.20;82.60;;;;;;4170683;28;20381;-84
2024/01/19 02:21:31;;;;;;;;;;;0.20;82.60;;;;;;4185805;28;19999;-84
2024/01/19 02:24:01;;;;;;;;;;;0.20;82.50;;;;;;4169786;28;19916;-83
2024/01/19 02:26:22;;;;;;;;;;;0.20;82.50;;;;;;4170125;28;20436;-83
2024/01/19 02:28:42;;;;;;;;;;;0.20;82.60;;;;;;4170437;28;20454;-83
2024/01/19 02:31:03;;;;;;;;;;;0.20;82.80;;;;;;4168436;28;19924;-84
2024/01/19 02:33:23;;;;;;;;;;;0.20;82.80;;;;;;4170850;28;19982;-83
2024/01/19 02:35:44;;;;;;;;;;;0.20;83.20;;;;;;4167881;28;19913;-84
2024/01/19 02:38:04;;;;;;;;;;;0.20;83.70;;;;;;4184745;28;19920;-84
2024/01/19 02:40:25;;;;;;;;;;;0.20;83.90;;;;;;4172590;28;19921;-84
2024/01/19 02:42:45;;;;;;;;;;;0.30;84.10;;;;;;4171003;28;19931;-84
2024/01/19 02:45:07;;;;;;;;;;;0.30;84.40;;;;;;4169623;28;19975;-83
2024/01/19 02:47:28;;;;;;;;;;;0.30;84.20;;;;;;4164433;28;20009;-84
2024/01/19 02:49:48;;;;;;;;;;;0.30;84.40;;;;;;4170373;28;20377;-83
2024/01/19 02:52:09;;;;;;;;;;;0.30;84.40;;;;;;4174624;28;19921;-84
2024/01/19 02:54:29;;;;;;;;;;;0.30;84.10;;;;;;4170041;28;19921;-84
2024/01/19 02:56:50;;;;;;;;;;;0.30;84.00;;;;;;4182939;28;19917;-84
2024/01/19 02:59:10;;;;;;;;;;;0.30;84.00;;;;;;4176139;28;19974;-84
2024/01/19 03:01:31;;;;;;;;;;;0.40;84.00;;;;;;4173701;28;19921;-84
2024/01/19 03:03:52;;;;;;;;;;;0.30;83.90;;;;;;4167572;28;21679;-84
2024/01/19 03:06:12;;;;;;;;;;;0.30;83.90;;;;;;4172863;28;19938;-84
2024/01/19 03:08:33;;;;;;;;;;;0.30;83.80;;;;;;4170916;28;20007;-84
2024/01/19 03:10:55;;;;;;;;;;;0.30;83.60;;;;;;4192018;28;19924;-83
2024/01/19 03:13:15;;;;;;;;;;;0.30;83.60;;;;;;4174409;28;19928;-83
2024/01/19 03:15:36;;;;;;;;;;;0.30;83.30;;;;;;4171821;28;19917;-84
2024/01/19 03:17:56;;;;;;;;;;;0.30;83.30;;;;;;4170610;28;19917;-83
2024/01/19 03:20:17;;;;;;;;;;;0.20;83.10;;;;;;4172622;28;20047;-83
2024/01/19 03:22:37;;;;;;;;;;;0.20;82.90;;;;;;4170157;28;19925;-83
2024/01/19 03:24:58;;;;;;;;;;;0.20;82.80;;;;;;4168461;28;21376;-84
2024/01/19 03:27:19;;;;;;;;;;;0.20;82.70;;;;;;4172532;28;19912;-83
2024/01/19 03:29:39;;;;;;;;;;;0.20;82.70;;;;;;4172407;28;19912;-83
2024/01/19 03:32:00;;;;;;;;;;;0.10;82.60;;;;;;4173274;28;19917;-84
2024/01/19 03:34:20;;;;;;;;;;;0.10;82.70;;;;;;4172669;28;19913;-84
2024/01/19 03:36:40;;;;;;;;;;;0.10;82.70;;;;;;4171758;28;19917;-83
2024/01/19 03:39:01;;;;;;;;;;;0.10;82.70;;;;;;4172043;28;19917;-83
2024/01/19 03:41:22;;;;;;;;;;;0.10;82.70;;;;;;4186629;28;19912;-84
2024/01/19 03:43:43;;;;;;;;;;;0.00;82.60;;;;;;4171477;28;19917;-84
2024/01/19 03:46:04;;;;;;;;;;;0.00;82.60;;;;;;4185343;28;20382;-84
2024/01/19 03:48:24;;;;;;;;;;;0.00;82.60;;;;;;4188569;28;19999;-84
2024/01/19 03:50:45;;;;;;;;;;;0.00;82.60;;;;;;4176166;28;20363;-84
2024/01/19 03:53:05;;;;;;;;;;;0.00;82.70;;;;;;4174694;28;19917;-84
2024/01/19 03:55:26;;;;;;;;;;;0.00;82.80;;;;;;4172595;28;19943;-84
2024/01/19 03:57:46;;;;;;;;;;;0.00;82.90;;;;;;4170944;28;19917;-82
2024/01/19 04:00:07;;;;;;;;;;;0.00;83.10;;;;;;4172071;28;19951;-83
2024/01/19 04:02:27;;;;;;;;;;;0.00;83.10;;;;;;4171447;28;19920;-82
2024/01/19 04:04:48;;;;;;;;;;;0.20;83.20;;;;;;4172439;28;19908;-83
2024/01/19 04:07:07;;;;;;;;;;;0.10;83.40;;;;;;4173029;28;19974;-84
2024/01/19 04:09:26;;;;;;;;;;;0.10;83.90;;;;;;4181681;28;20289;-83
2024/01/19 04:11:46;;;;;;;;;;;0.10;83.90;;;;;;4170736;28;20331;-81
2024/01/19 04:14:05;;;;;;;;;;;0.10;83.90;;;;;;4171394;28;19966;-84
2024/01/19 04:16:24;;;;;;;;;;;0.10;84.00;;;;;;4169594;28;19927;-84
2024/01/19 04:18:44;;;;;;;;;;;0.10;84.10;;;;;;4170786;28;19999;-83
2024/01/19 04:21:03;;;;;;;;;;;0.10;84.30;;;;;;4172512;28;19944;-84
2024/01/19 04:23:22;;;;;;;;;;;0.10;84.20;;;;;;4169004;28;20150;-84
2024/01/19 04:25:42;;;;;;;;;;;0.10;84.00;;;;;;4171374;28;19919;-83
2024/01/19 04:28:01;;;;;;;;;;;0.10;83.90;;;;;;4171965;28;19923;-84
2024/01/19 04:30:20;;;;;;;;;;;0.10;83.70;;;;;;4165759;28;20562;-84
2024/01/19 04:32:39;;;;;;;;;;;0.10;84.30;;;;;;4168291;28;20417;-84
2024/01/19 04:34:58;;;;;;;;;;;0.10;83.60;;;;;;4172773;28;19954;-84
2024/01/19 04:37:18;;;;;;;;;;;0.00;83.50;;;;;;4178032;28;19962;-83
2024/01/19 04:39:37;;;;;;;;;;;0.00;83.50;;;;;;4180558;28;20140;-85
2024/01/19 04:41:56;;;;;;;;;;;0.00;83.50;;;;;;4171472;28;19919;-84
2024/01/19 04:44:16;;;;;;;;;;;0.00;83.50;;;;;;4183003;28;19937;-84
2024/01/19 04:46:35;;;;;;;;;;;0.00;83.40;;;;;;4169874;28;19920;-84
2024/01/19 04:48:54;;;;;;;;;;;0.00;83.30;;;;;;4185379;28;19928;-83
2024/01/19 04:51:14;;;;;;;;;;;-0.10;83.20;;;;;;4186947;28;20725;-84
2024/01/19 04:53:33;;;;;;;;;;;-0.10;83.90;;;;;;4171778;28;20440;-84
2024/01/19 04:55:52;;;;;;;;;;;-0.10;83.20;;;;;;4171107;28;19947;-84
2024/01/19 04:58:11;;;;;;;;;;;-0.10;83.80;;;;;;4170386;28;20131;-84
2024/01/19 05:00:31;;;;;;;;;;;-0.10;83.10;;;;;;4173070;28;20322;-83
2024/01/19 05:02:50;;;;;;;;;;;-0.20;83.10;;;;;;4171445;28;19920;-81
2024/01/19 05:05:09;;;;;;;;;;;-0.10;83.00;;;;;;4171926;28;20455;-83
2024/01/19 05:07:29;;;;;;;;;;;-0.20;83.00;;;;;;4170257;28;20267;-83
2024/01/19 05:09:48;;;;;;;;;;;-0.20;83.00;;;;;;4183921;28;20007;-82
2024/01/19 05:12:07;;;;;;;;;;;-0.30;82.80;;;;;;4182322;28;19943;-83
2024/01/19 05:14:26;;;;;;;;;;;-0.30;82.80;;;;;;4172199;28;20504;-82
2024/01/19 05:16:46;;;;;;;;;;;-0.30;82.80;;;;;;4172246;28;19936;-83
2024/01/19 05:19:05;;;;;;;;;;;-0.30;82.80;;;;;;4176727;28;19924;-82
2024/01/19 05:21:25;;;;;;;;;;;-0.40;82.80;;;;;;4174892;28;19958;-83
2024/01/19 05:23:44;;;;;;;;;;;-0.40;83.60;;;;;;4171794;28;19920;-82
2024/01/19 05:26:08;;;;;;;;;;;-0.40;83.60;;;;;;4172768;28;19928;-82
2024/01/19 05:28:27;;;;;;;;;;;-0.40;83.60;;;;;;4175405;28;19920;-82
2024/01/19 05:30:48;;;;;;;;;;;-0.50;82.90;;;;;;4171846;28;20250;-82
2024/01/19 05:33:07;;;;;;;;;;;-0.50;83.70;;;;;;4171492;28;19982;-85
2024/01/19 05:35:26;;;;;;;;;;;-0.50;83.80;;;;;;4169012;28;20546;-82
2024/01/19 05:37:46;;;;;;;;;;;-0.50;83.90;;;;;;4167331;28;20105;-82
2024/01/19 05:40:05;;;;;;;;;;;-0.50;83.90;;;;;;4171227;28;20286;-83
2024/01/19 05:42:25;;;;;;;;;;;-0.50;83.20;;;;;;4183280;28;19924;-82
2024/01/19 05:44:45;;;;;;;;;;;-0.50;83.10;;;;;;4174671;28;19932;-83
2024/01/19 05:47:04;;;;;;;;;;;-0.50;83.00;;;;;;4168813;28;19927;-81
2024/01/19 05:49:23;;;;;;;;;;;-0.50;82.90;;;;;;4169984;28;19920;-83
2024/01/19 05:51:43;;;;;;;;;;;-0.60;82.70;;;;;;4171061;28;19924;-82
2024/01/19 05:54:02;;;;;;;;;;;-0.60;82.70;;;;;;4172600;28;19928;-83
2024/01/19 05:56:21;;;;;;;;;;;-0.60;82.80;;;;;;4169057;28;19959;-82
2024/01/19 05:58:40;;;;;;;;;;;-0.70;82.80;;;;;;4169012;28;19916;-82
2024/01/19 06:01:03;;;;;;;;;;;-0.60;83.00;;;;;;4170933;28;20396;-83
2024/01/19 06:03:22;;;;;;;;;;;-0.60;83.00;;;;;;4173317;28;19919;-83
2024/01/19 06:05:41;;;;;;;;;;;-0.60;83.70;;;;;;4179807;28;19995;-82
2024/01/19 06:08:00;;;;;;;;;;;-0.60;83.70;;;;;;4189468;28;19938;-83
2024/01/19 06:10:19;;;;;;;;;;;-0.60;82.80;;;;;;4172601;28;19966;-82
2024/01/19 06:12:39;;;;;;;;;;;-0.60;83.50;;;;;;4169353;28;19982;-84
2024/01/19 06:14:58;;;;;;;;;;;-0.70;82.70;;;;;;4171976;28;19924;-82
2024/01/19 06:17:17;;;;;;;;;;;-0.60;82.70;;;;;;4169280;28;19947;-82
2024/01/19 06:19:36;;;;;;;;;;;-0.60;82.70;;;;;;4175327;28;19966;-83
2024/01/19 06:21:56;;;;;;;;;;;-0.70;82.50;;;;;;4170185;28;19924;-83
2024/01/19 06:24:15;;;;;;;;;;;-0.70;82.40;;;;;;4175116;28;19924;-82
2024/01/19 06:26:34;;;;;;;;;;;-0.70;82.50;;;;;;4169068;28;19931;-82
2024/01/19 06:28:54;;;;;;;;;;;-0.70;82.40;;;;;;4165573;28;19920;-82
2024/01/19 06:31:13;;;;;;;;;;;-0.70;82.40;;;;;;4163148;28;20697;-82
2024/01/19 06:33:32;;;;;;;;;;;-0.80;82.30;;;;;;4166461;28;20420;-83
2024/01/19 06:35:52;;;;;;;;;;;-0.80;82.90;;;;;;4166679;28;19927;-83
2024/01/19 06:38:11;;;;;;;;;;;-0.80;82.80;;;;;;4161817;28;20470;-82
2024/01/19 06:40:31;;;;;;;;;;;-0.80;82.10;;;;;;4168404;28;19919;-83
2024/01/19 06:42:50;;;;;;;;;;;-0.80;82.00;;;;;;4170155;28;19923;-82
2024/01/19 06:45:09;;;;;;;;;;;-0.90;81.90;;;;;;4147580;28;19949;-83
2024/01/19 06:47:28;;;;;;;;;;;-0.90;81.80;;;;;;4151193;28;19923;-82
2024/01/19 06:49:47;;;;;;;;;;;-1.00;82.40;;;;;;4142688;28;19936;-82
2024/01/19 06:52:07;;;;;;;;;;;-1.00;81.70;;;;;;4153005;28;20535;-82
2024/01/19 06:54:26;;;;;;;;;;;-1.00;81.60;;;;;;4150780;28;19983;-82
2024/01/19 06:56:45;;;;;;;;;;;-1.10;81.60;;;;;;4146387;28;19944;-81
2024/01/19 06:59:05;;;;;;;;;;;-1.10;81.80;;;;;;4146428;28;19979;-83
2024/01/19 07:01:24;;;;;;;;;;;-1.10;81.90;;;;;;4146554;28;19952;-83
2024/01/19 07:03:43;;;;;;;;;;;-1.10;82.10;;;;;;4163978;28;20022;-82
2024/01/19 07:06:02;;;;;;;;;;;-1.10;82.30;;;;;;4147565;28;19924;-85
2024/01/19 07:08:21;;;;;;;;;;;-1.10;82.50;;;;;;4142681;28;20058;-84
2024/01/19 07:10:41;;;;;;;;;;;-1.00;82.70;;;;;;4135911;28;19925;-84
2024/01/19 07:13:00;;;;;;;;;;;-1.00;83.00;;;;;;4133205;28;20111;-84
2024/01/19 07:15:19;;;;;;;;;;;-0.90;83.20;;;;;;4144648;28;19959;-84
2024/01/19 07:17:38;;;;;;;;;;;-0.90;83.40;;;;;;4146912;28;19932;-85
2024/01/19 07:20:00;;;;;;;;;;;-0.90;84.10;;;;;;4149362;28;20008;-83
2024/01/19 07:22:18;;;;;;;;;;;-0.80;84.70;;;;;;4145775;28;20039;-83
2024/01/19 07:24:38;;;;;;;;;;;-0.80;84.60;;;;;;4151622;28;19975;-83
2024/01/19 07:26:57;;;;;;;;;;;-0.70;84.90;;;;;;4148516;28;19951;-84
2024/01/19 07:29:17;;;;;;;;;;;-0.70;85.20;;;;;;4147977;28;20101;-84
2024/01/19 07:31:37;;;;;;;;;;;-0.70;85.50;;;;;;4146554;28;19956;-84
2024/01/19 07:33:56;;;;;;;;;;;-0.70;86.40;;;;;;4162536;28;19988;-84
2024/01/19 07:36:15;;;;;;;;;;;-0.60;85.90;;;;;;4151408;28;19923;-83
2024/01/19 07:38:34;;;;;;;;;;;-0.60;85.90;;;;;;4154067;28;20621;-84
2024/01/19 07:40:54;;;;;;;;;;;-0.60;85.50;;;;;;4153243;28;19924;-85
2024/01/19 07:43:13;;;;;;;;;;;-0.50;85.30;;;;;;4153025;28;19923;-83
2024/01/19 07:45:32;;;;;;;;;;;-0.50;84.90;;;;;;4151249;28;19944;-83
2024/01/19 07:47:52;;;;;;;;;;;-0.40;84.70;;;;;;4151158;28;19974;-84
2024/01/19 07:50:11;;;;;;;;;;;-0.40;85.20;;;;;;4163373;28;20038;-84
2024/01/19 07:52:30;;;;;;;;;;;-0.40;84.40;;;;;;4147054;28;20024;-84
2024/01/19 07:54:49;;;;;;;;;;;-0.40;84.20;;;;;;4148710;28;20615;-84
2024/01/19 07:56:50;;;;;;;;;;;-0.40;84.00;;;;;;4147282;28;19922;-85
2024/01/19 07:58:50;;;;;;;;;;;-0.40;83.80;;;;;;4149397;28;19971;-83
2024/01/19 08:00:51;;;;;;;;;;;-0.40;83.60;;;;;;4149468;28;19955;-83
2024/01/19 08:02:52;;;;;;;;;;;-0.40;83.50;;;;;;4151031;28;20398;-84
2024/01/19 08:04:52;;;;;;;;;;;-0.40;83.50;;;;;;4151562;28;20047;-84
2024/01/19 08:07:13;;;;;;;;;;;-0.30;83.60;;;;;;4151343;28;19944;-84
2024/01/19 08:09:14;;;;;;;;;;;-0.30;83.50;;;;;;4152596;28;20000;-84
2024/01/19 08:11:15;;;;;;;;;;;-0.40;83.50;;;;;;4130415;28;19921;-83
2024/01/19 08:13:36;;;;;;;;;;;-0.40;83.60;;;;;;4146576;28;19913;-84
2024/01/19 08:15:56;;;;;;;;;;;-0.40;83.80;;;;;;4145369;28;20000;-83
2024/01/19 08:18:17;;;;;;;;;;;-0.40;83.80;;;;;;4162939;28;19975;-83
2024/01/19 08:20:38;;;;;;;;;;;-0.40;83.80;;;;;;4151957;28;19924;-84
2024/01/19 08:22:59;;;;;;;;;;;-0.30;83.80;;;;;;4152116;28;19953;-84
2024/01/19 08:25:19;;;;;;;;;;;-0.30;83.70;;;;;;4150663;28;19917;-83
2024/01/19 08:27:41;;;;;;;;;;;-0.30;83.60;;;;;;4149805;28;19917;-84
2024/01/19 08:30:01;;;;;;;;;;;-0.30;83.60;;;;;;4148871;28;19945;-84
2024/01/19 08:32:22;;;;;;;;;;;-0.30;83.50;;;;;;4152359;28;19967;-84
2024/01/19 08:34:43;;;;;;;;;;;-0.20;83.50;;;;;;4152245;28;19921;-84
2024/01/19 08:37:04;;;;;;;;;;;-0.20;83.40;;;;;;4147532;28;20043;-84
2024/01/19 08:39:24;;;;;;;;;;;-0.20;83.40;;;;;;4150567;28;20695;-83
2024/01/19 08:41:47;;;;;;;;;;;-0.20;83.40;;;;;;4151977;28;19975;-84
2024/01/19 08:44:08;;;;;;;;;;;-0.20;83.30;;;;;;4157772;28;19920;-83
2024/01/19 08:46:28;;;;;;;;;;;-0.20;83.30;;;;;;4154253;28;20000;-84
2024/01/19 08:48:49;;;;;;;;;;;-0.20;83.20;;;;;;4148504;28;19917;-84
2024/01/19 08:51:17;;;;;;;;;;;-0.10;83.20;;;;;;4152592;28;19980;-85
2024/01/19 08:53:37;;;;;;;;;;;-0.10;83.20;;;;;;4164292;28;20432;-84
2024/01/19 08:55:58;;;;;;;;;;;-0.10;83.30;;;;;;4156919;28;19987;-84
2024/01/19 08:58:18;;;;;;;;;;;0.00;83.30;;;;;;4151999;28;19990;-85
2024/01/19 09:00:39;;;;;;;;;;;0.00;83.40;;;;;;4152525;28;19956;-85
2024/01/19 09:02:59;;;;;;;;;;;0.00;83.50;;;;;;4166767;28;19924;-83
2024/01/19 09:05:20;;;;;;;;;;;0.20;83.70;;;;;;4160089;28;20366;-84
2024/01/19 09:07:40;;;;;;;;;;;0.20;83.80;;;;;;4152595;28;19917;-83
2024/01/19 09:10:01;;;;;;;;;;;0.20;83.80;;;;;;4150209;28;19921;-84
2024/01/19 09:12:21;;;;;;;;;;;0.20;83.90;;;;;;4152691;28;19924;-84
2024/01/19 09:14:42;;;;;;;;;;;0.30;83.80;;;;;;4150257;28;20024;-84
2024/01/19 09:17:03;;;;;;;;;;;0.40;83.80;;;;;;4148591;28;19932;-84
2024/01/19 09:19:24;;;;;;;;;;;0.40;83.60;;;;;;4151831;28;19956;-84
2024/01/19 09:21:44;;;;;;;;;;;0.40;83.50;;;;;;4148916;28;20292;-85
2024/01/19 09:24:08;;;;;;;;;;;0.40;83.50;;;;;;4152402;28;19959;-85
2024/01/19 09:26:29;;;;;;;;;;;0.50;83.50;;;;;;4156450;28;19921;-85
2024/01/19 09:28:49;;;;;;;;;;;0.50;83.40;;;;;;4151443;28;19927;-84
2024/01/19 09:31:10;;;;;;;;;;;0.50;83.40;;;;;;4152633;28;19932;-85
2024/01/19 09:33:30;;;;;;;;;;;0.50;83.30;;;;;;4152168;28;20014;-84
2024/01/19 09:35:51;;;;;;;;;;;0.60;83.30;;;;;;4147700;28;20356;-84
2024/01/19 09:38:11;;;;;;;;;;;0.60;83.30;;;;;;4145441;28;19956;-85
2024/01/19 09:40:32;;;;;;;;;;;0.60;83.20;;;;;;4153530;28;20015;-84
2024/01/19 09:42:54;;;;;;;;;;;0.60;83.20;;;;;;4150400;28;19953;-83
2024/01/19 09:45:17;;;;;;;;;;;0.70;83.20;;;;;;4150016;28;19920;-85
2024/01/19 09:47:53;;;;;;;;;;;0.70;83.20;;;;;;4166328;28;19967;-85
2024/01/19 09:50:17;;;;;;;;;;;0.70;83.20;;;;;;4151872;28;19928;-83
2024/01/19 09:52:39;;;;;;;;;;;0.80;83.20;;;;;;4151592;28;19939;-84
2024/01/19 09:54:59;;;;;;;;;;;0.80;83.30;;;;;;4149755;28;19975;-85
2024/01/19 09:57:18;;;;;;;;;;;0.90;83.30;;;;;;4152645;28;19932;-85
2024/01/19 09:59:37;;;;;;;;;;;0.90;84.10;;;;;;4152121;28;19924;-85
2024/01/19 10:01:57;;;;;;;;;;;0.90;83.30;;;;;;4162036;28;20047;-84
2024/01/19 10:04:17;;;;;;;;;;;1.10;83.40;;;;;;4149421;28;20275;-85
2024/01/19 10:06:37;;;;;;;;;;;1.00;83.40;;;;;;4147613;28;19924;-84
2024/01/19 10:08:57;;;;;;;;;;;1.10;83.30;;;;;;4151158;28;19932;-84
2024/01/19 10:11:17;;;;;;;;;;;1.10;83.30;;;;;;4151915;28;19996;-84
2024/01/19 10:13:36;;;;;;;;;;;1.30;83.40;;;;;;4145075;28;19963;-84
2024/01/19 10:15:55;;;;;;;;;;;1.20;83.30;;;;;;4151248;28;19924;-85
2024/01/19 10:18:14;;;;;;;;;;;1.20;84.10;;;;;;4142923;28;20019;-85
2024/01/19 10:20:34;;;;;;;;;;;1.30;83.40;;;;;;4146865;28;19923;-84
2024/01/19 10:22:53;;;;;;;;;;;1.30;83.40;;;;;;4153555;28;20300;-83
2024/01/19 10:25:13;;;;;;;;;;;1.40;83.50;;;;;;4151105;28;19928;-83
2024/01/19 10:27:41;;;;;;;;;;;1.40;83.40;;;;;;4154099;28;19994;-84
2024/01/19 10:30:11;;;;;;;;;;;1.50;83.50;;;;;;4149428;28;19968;-83
2024/01/19 10:32:31;;;;;;;;;;;1.50;83.50;;;;;;4150459;28;19919;-85
2024/01/19 10:35:02;;;;;;;;;;;1.60;83.50;;;;;;4163626;28;19976;-84
2024/01/19 10:37:22;;;;;;;;;;;1.60;83.30;;;;;;4148747;28;19924;-84
2024/01/19 10:39:41;;;;;;;;;;;1.70;83.30;;;;;;4149042;28;20002;-84
2024/01/19 10:42:04;;;;;;;;;;;1.80;83.20;;;;;;4150113;28;20008;-85
2024/01/19 10:44:24;;;;;;;;;;;1.80;83.00;;;;;;4152352;28;20505;-85
2024/01/19 10:46:43;;;;;;;;;;;1.90;83.10;;;;;;4148876;28;19963;-84
2024/01/19 10:49:06;;;;;;;;;;;2.00;83.10;;;;;;4147868;28;19924;-84
2024/01/19 10:51:29;;;;;;;;;;;2.00;83.10;;;;;;4150283;28;19924;-84
2024/01/19 10:53:49;;;;;;;;;;;2.10;83.10;;;;;;4149990;28;20322;-85
2024/01/19 10:56:08;;;;;;;;;;;2.20;83.10;;;;;;4151074;28;19924;-84
2024/01/19 10:58:32;;;;;;;;;;;2.20;83.70;;;;;;4149126;28;19952;-84
2024/01/19 11:00:51;;;;;;;;;;;2.20;82.70;;;;;;4148089;28;19923;-84
2024/01/19 11:03:11;;;;;;;;;;;2.30;82.60;;;;;;4150755;28;19928;-84
2024/01/19 11:05:30;;;;;;;;;;;2.30;83.00;;;;;;4149468;28;19920;-84
2024/01/19 11:07:51;;;;;;;;;;;2.30;82.40;;;;;;4147070;28;19919;-84
2024/01/19 11:10:10;;;;;;;;;;;2.30;82.30;;;;;;4156078;28;20613;-84
2024/01/19 11:12:30;;;;;;;;;;;2.30;82.30;;;;;;4152756;28;19923;-84
2024/01/19 11:14:51;;;;;;;;;;;2.50;82.30;;;;;;4157251;28;20002;-84
2024/01/19 11:17:11;;;;;;;;;;;2.40;82.10;;;;;;4151451;28;20008;-84
2024/01/19 11:19:30;;;;;;;;;;;2.50;82.30;;;;;;4153114;28;19937;-83
2024/01/19 11:21:49;;;;;;;;;;;2.50;82.30;;;;;;4146376;28;19921;-84
2024/01/19 11:24:09;;;;;;;;;;;2.60;82.40;;;;;;4155826;28;20023;-84
2024/01/19 11:26:37;;;;;;;;;;;2.70;83.00;;;;;;4149503;28;19920;-84
2024/01/19 11:28:58;;;;;;;;;;;2.60;82.00;;;;;;4142410;28;20019;-84
2024/01/19 11:31:18;;;;;;;;;;;2.60;81.70;;;;;;4153259;28;19928;-84
2024/01/19 11:33:37;;;;;;;;;;;2.70;81.60;;;;;;4164888;28;19920;-84
2024/01/19 11:35:57;;;;;;;;;;;2.60;80.90;;;;;;4147568;28;19979;-84
2024/01/19 11:38:35;;;;;;;;;;;2.60;80.90;;;;;;4145437;28;19932;-84
2024/01/19 11:40:54;;;;;;;;;;;2.60;81.00;;;;;;4152288;28;19991;-85
2024/01/19 11:43:33;;;;;;;;;;;2.70;81.10;;;;;;4164681;28;19927;-84
2024/01/19 11:45:52;;;;;;;;;;;2.70;81.20;;;;;;4149490;28;19923;-84
2024/01/19 11:48:32;;;;;;;;;;;2.70;81.30;;;;;;4151294;28;19951;-84
2024/01/19 11:50:51;;;;;;;;;;;2.70;81.40;;;;;;4147951;28;20421;-84
2024/01/19 11:53:11;;;;;;;;;;;2.80;81.50;;;;;;4153698;28;20044;-84
2024/01/19 11:55:30;;;;;;;;;;;2.80;81.40;;;;;;4148871;28;19927;-84
2024/01/19 11:57:49;;;;;;;;;;;2.90;81.40;;;;;;4146722;28;19936;-85
2024/01/19 12:00:10;;;;;;;;;;;2.80;81.20;;;;;;4151263;28;20461;-85
2024/01/19 12:02:30;;;;;;;;;;;2.90;81.30;;;;;;4163042;28;20296;-85
2024/01/19 12:04:50;;;;;;;;;;;2.90;81.10;;;;;;4147609;28;19924;-85
2024/01/19 12:07:09;;;;;;;;;;;3.00;81.00;;;;;;4151680;28;19975;-85
2024/01/19 12:09:28;;;;;;;;;;;3.00;80.90;;;;;;4159562;28;19928;-85
2024/01/19 12:11:48;;;;;;;;;;;3.00;80.80;;;;;;4144735;28;21405;-84
2024/01/19 12:14:09;;;;;;;;;;;3.00;80.80;;;;;;4146828;28;19967;-84
2024/01/19 12:16:28;;;;;;;;;;;3.00;80.70;;;;;;4145481;28;19963;-84
2024/01/19 12:18:51;;;;;;;;;;;3.10;80.80;;;;;;4145164;28;19987;-84
2024/01/19 12:21:11;;;;;;;;;;;3.00;80.80;;;;;;4150114;28;20023;-85
2024/01/19 12:23:32;;;;;;;;;;;3.00;81.30;;;;;;4145398;28;19971;-85
2024/01/19 12:25:56;;;;;;;;;;;3.20;80.80;;;;;;4158911;28;19995;-85
2024/01/19 12:28:15;;;;;;;;;;;3.10;80.60;;;;;;4147721;28;19959;-85
2024/01/19 12:30:35;;;;;;;;;;;3.10;80.70;;;;;;4146771;28;20430;-83
2024/01/19 12:32:54;;;;;;;;;;;3.10;80.60;;;;;;4145348;28;19920;-85
2024/01/19 12:35:18;;;;;;;;;;;3.10;80.50;;;;;;4146561;28;20026;-84
2024/01/19 12:37:37;;;;;;;;;;;3.10;81.20;;;;;;4149943;28;19928;-84
2024/01/19 12:40:15;;;;;;;;;;;3.10;80.50;;;;;;4147043;28;19975;-84
2024/01/19 12:42:36;;;;;;;;;;;3.10;80.50;;;;;;4154831;28;20141;-85
2024/01/19 12:44:56;;;;;;;;;;;3.10;80.50;;;;;;4151536;28;20043;-85
2024/01/19 12:47:17;;;;;;;;;;;3.10;80.40;;;;;;4146557;28;20789;-84
2024/01/19 12:49:37;;;;;;;;;;;3.20;80.60;;;;;;4146147;28;19923;-84
2024/01/19 12:51:56;;;;;;;;;;;3.20;80.30;;;;;;4143992;28;19924;-83
2024/01/19 12:54:17;;;;;;;;;;;3.20;80.30;;;;;;4140409;28;19996;-84
2024/01/19 12:56:36;;;;;;;;;;;3.20;80.80;;;;;;4136641;28;19940;-84
2024/01/19 12:58:36;;;;;;;;;;;3.20;80.30;;;;;;4155993;28;19913;-84
2024/01/19 13:00:37;;;;;;;;;;;3.30;80.30;;;;;;4140479;28;19921;-84
2024/01/19 13:02:38;;;;;;;;;;;3.20;80.10;;;;;;4142353;28;20001;-84
2024/01/19 13:04:38;;;;;;;;;;;3.20;80.20;;;;;;4147876;28;20379;-85
2024/01/19 13:06:43;;;;;;;;;;;3.20;80.30;;;;;;4146461;28;20067;-84
2024/01/19 13:09:04;;;;;;;;;;;3.20;80.20;;;;;;4150258;28;19928;-84
2024/01/19 13:11:24;;;;;;;;;;;3.20;80.20;;;;;;4149831;28;19948;-84
2024/01/19 13:13:45;;;;;;;;;;;3.20;80.20;;;;;;4142446;28;19972;-84
2024/01/19 13:16:07;;;;;;;;;;;3.30;80.10;;;;;;4146239;28;19952;-83
2024/01/19 13:18:12;;;;;;;;;;;3.30;80.20;;;;;;4149266;28;19929;-84
2024/01/19 13:20:33;;;;;;;;;;;3.30;80.20;;;;;;4149039;28;19921;-84
2024/01/19 13:22:54;;;;;;;;;;;3.30;80.20;;;;;;4147886;28;20002;-83
2024/01/19 13:25:15;;;;;;;;;;;3.30;80.30;;;;;;4146857;28;19921;-84
2024/01/19 13:27:35;;;;;;;;;;;3.30;80.50;;;;;;4144313;28;19921;-88
2024/01/19 13:29:56;;;;;;;;;;;3.30;80.40;;;;;;4148743;28;20239;-84
2024/01/19 13:32:16;;;;;;;;;;;3.30;80.30;;;;;;4139413;28;19935;-83
2024/01/19 13:34:37;;;;;;;;;;;3.30;80.40;;;;;;4141733;28;19991;-84